Time;durP1;ratioP1;P1;durP2;ratioP2;P2;SDS_P1;SDS_P2;PMS_P1;PMS_P2;Temp;Humidity;BMP_temperature;BMP_pressure;BME280_temperature;BME280_humidity;BME280_pressure;Samples;Min_cycle;Max_cycle;Signal;HPM_P1;HPM_P2
2021/03/25 00:01:25;;;;;;;78.93;40.08;;;9.80;99.90;;;;;;4959901;28;20526;-76
2021/03/25 00:03:52;;;;;;;70.03;36.05;;;9.80;99.90;;;;;;4963220;28;20493;-76
2021/03/25 00:06:19;;;;;;;65.13;35.28;;;9.80;99.90;;;;;;4945125;28;20361;-76
2021/03/25 00:08:45;;;;;;;72.32;37.40;;;9.70;99.90;;;;;;4960776;28;20034;-75
2021/03/25 00:11:11;;;;;;;66.50;37.15;;;9.70;99.90;;;;;;4947606;28;20022;-75
2021/03/25 00:13:37;;;;;;;69.97;38.15;;;9.60;99.90;;;;;;4961522;28;20035;-76
2021/03/25 00:16:04;;;;;;;68.25;36.78;;;9.50;99.90;;;;;;4963454;28;20101;-76
2021/03/25 00:18:31;;;;;;;67.70;35.80;;;9.60;99.90;;;;;;4955762;28;20063;-75
2021/03/25 00:20:57;;;;;;;72.72;37.50;;;9.60;99.90;;;;;;4960202;28;20046;-76
2021/03/25 00:23:23;;;;;;;70.93;36.85;;;9.70;99.90;;;;;;4964798;28;20113;-72
2021/03/25 00:25:48;;;;;;;74.00;37.47;;;9.70;99.90;;;;;;4965893;28;20170;-75
2021/03/25 00:28:16;;;;;;;71.72;38.35;;;9.70;99.90;;;;;;4966127;28;20046;-74
2021/03/25 00:30:42;;;;;;;76.25;38.88;;;9.60;99.90;;;;;;4967301;28;20396;-76
2021/03/25 00:33:10;;;;;;;79.90;39.65;;;9.60;99.90;;;;;;4964300;28;20037;-75
2021/03/25 00:35:37;;;;;;;74.03;37.92;;;9.70;99.90;;;;;;4965882;28;20407;-75
2021/03/25 00:38:04;;;;;;;77.13;38.08;;;9.70;99.90;;;;;;4960330;28;20027;-74
2021/03/25 00:40:30;;;;;;;78.15;37.63;;;9.70;99.90;;;;;;4958810;28;20039;-75
2021/03/25 00:42:56;;;;;;;69.15;36.25;;;9.60;99.90;;;;;;4960655;28;20033;-76
2021/03/25 00:45:43;;;;;;;67.25;34.05;;;9.60;99.90;;;;;;4961028;28;20035;-75
2021/03/25 00:48:09;;;;;;;65.03;35.03;;;9.50;99.90;;;;;;4963831;28;20488;-75
2021/03/25 00:50:57;;;;;;;66.70;33.60;;;9.50;99.90;;;;;;4962525;28;20027;-76
2021/03/25 00:53:28;;;;;;;75.47;37.30;;;9.50;99.90;;;;;;4963274;28;20481;-75
2021/03/25 00:55:54;;;;;;;61.05;34.45;;;9.40;99.90;;;;;;4963764;28;20499;-75
2021/03/25 00:58:19;;;;;;;67.82;35.10;;;9.30;99.90;;;;;;4961837;28;20106;-75
2021/03/25 01:00:46;;;;;;;75.95;39.05;;;9.30;99.90;;;;;;4965138;28;20041;-76
2021/03/25 01:03:14;;;;;;;77.13;39.22;;;9.40;99.90;;;;;;4958414;28;20034;-71
2021/03/25 01:05:40;;;;;;;74.95;38.30;;;9.30;99.90;;;;;;4959295;28;20028;-74
2021/03/25 01:08:07;;;;;;;70.78;36.20;;;9.30;99.90;;;;;;4963180;28;20034;-75
2021/03/25 01:10:50;;;;;;;66.13;34.53;;;9.20;99.90;;;;;;4955550;28;20651;-73
2021/03/25 01:13:38;;;;;;;74.85;37.03;;;9.10;99.90;;;;;;4956945;28;20043;-74
2021/03/25 01:16:06;;;;;;;69.13;37.63;;;9.00;99.90;;;;;;4962401;28;20070;-74
2021/03/25 01:18:32;;;;;;;71.72;36.95;;;9.00;99.90;;;;;;4958644;28;20023;-75
2021/03/25 01:20:57;;;;;;;71.70;38.70;;;8.90;99.90;;;;;;4963373;28;20042;-75
2021/03/25 01:23:24;;;;;;;71.93;39.72;;;9.00;99.90;;;;;;4962221;28;20395;-74
2021/03/25 01:25:50;;;;;;;78.55;38.55;;;8.90;99.90;;;;;;4946509;28;20035;-74
2021/03/25 01:28:16;;;;;;;71.93;40.72;;;8.80;99.90;;;;;;4959744;28;20027;-75
2021/03/25 01:30:44;;;;;;;80.68;38.83;;;8.90;99.90;;;;;;4958622;28;20507;-74
2021/03/25 01:33:12;;;;;;;73.63;38.60;;;8.90;99.90;;;;;;4957047;28;20027;-74
2021/03/25 01:35:40;;;;;;;74.80;39.33;;;8.90;99.90;;;;;;4962872;28;20391;-75
2021/03/25 01:38:08;;;;;;;70.05;37.78;;;8.90;99.90;;;;;;4965318;28;20047;-75
2021/03/25 01:40:58;;;;;;;77.57;39.15;;;8.90;99.90;;;;;;4948776;28;20047;-73
2021/03/25 01:43:36;;;;;;;81.70;40.17;;;8.90;99.90;;;;;;4963770;28;20436;-74
2021/03/25 01:46:26;;;;;;;71.82;38.15;;;8.80;99.90;;;;;;4965366;28;20030;-75
2021/03/25 01:48:54;;;;;;;69.63;38.00;;;8.80;99.90;;;;;;4957638;28;20388;-75
2021/03/25 01:51:29;;;;;;;76.00;39.60;;;8.70;99.90;;;;;;4946957;28;20015;-73
2021/03/25 01:54:03;;;;;;;79.53;39.03;;;8.60;99.90;;;;;;4947639;28;20043;-74
2021/03/25 01:56:55;;;;;;;79.10;40.70;;;8.60;99.90;;;;;;4948306;28;20035;-74
2021/03/25 01:59:26;;;;;;;74.68;39.90;;;8.70;99.90;;;;;;4968442;28;20101;-75
2021/03/25 02:01:57;;;;;;;76.07;38.40;;;8.70;99.90;;;;;;4966624;28;20059;-75
2021/03/25 02:04:56;;;;;;;76.07;39.67;;;8.70;99.90;;;;;;4962393;28;20031;-75
2021/03/25 02:07:37;;;;;;;71.57;38.20;;;8.70;99.90;;;;;;4949153;28;20035;-74
2021/03/25 02:10:07;;;;;;;68.55;35.85;;;8.70;99.90;;;;;;4961284;28;20073;-75
2021/03/25 02:12:36;;;;;;;72.85;37.83;;;8.70;99.90;;;;;;4948907;28;20042;-75
2021/03/25 02:15:24;;;;;;;80.25;41.45;;;8.70;99.90;;;;;;4961822;28;20045;-75
2021/03/25 02:17:59;;;;;;;80.88;40.50;;;8.80;99.90;;;;;;4968539;28;20030;-73
2021/03/25 02:20:44;;;;;;;81.68;41.55;;;8.80;99.90;;;;;;4963280;28;20237;-75
2021/03/25 02:23:32;;;;;;;81.63;42.63;;;8.80;99.90;;;;;;4945857;28;20459;-74
2021/03/25 02:26:10;;;;;;;80.85;39.75;;;8.80;99.90;;;;;;4960914;28;20027;-74
2021/03/25 02:29:00;;;;;;;74.60;38.15;;;8.80;99.90;;;;;;4960168;28;20030;-74
2021/03/25 02:31:29;;;;;;;80.57;39.80;;;8.80;99.90;;;;;;4959056;28;20034;-75
2021/03/25 02:33:59;;;;;;;81.03;42.00;;;8.90;99.90;;;;;;4963407;28;20023;-72
2021/03/25 02:36:49;;;;;;;77.72;39.88;;;8.90;99.90;;;;;;4960947;28;20451;-73
2021/03/25 02:39:23;;;;;;;73.70;37.47;;;8.80;99.90;;;;;;4959984;28;20043;-75
2021/03/25 02:41:53;;;;;;;65.22;35.65;;;8.80;99.90;;;;;;4961812;28;20026;-74
2021/03/25 02:44:32;;;;;;;78.95;39.58;;;8.90;99.90;;;;;;4964499;28;20023;-74
2021/03/25 02:47:08;;;;;;;77.78;38.85;;;8.80;99.90;;;;;;4960920;28;20506;-72
2021/03/25 02:49:50;;;;;;;74.57;38.92;;;8.90;99.90;;;;;;4961703;28;20031;-75
2021/03/25 02:52:36;;;;;;;82.22;42.67;;;8.90;99.90;;;;;;4963397;28;20055;-73
2021/03/25 02:55:06;;;;;;;81.38;43.58;;;8.90;99.90;;;;;;4964849;28;20514;-73
2021/03/25 02:57:47;;;;;;;80.43;40.63;;;8.90;99.90;;;;;;4966628;28;20786;-75
2021/03/25 03:00:18;;;;;;;83.32;43.60;;;9.00;99.90;;;;;;4962245;28;20545;-72
2021/03/25 03:02:54;;;;;;;86.75;43.60;;;9.00;99.90;;;;;;4959815;28;20029;-74
2021/03/25 03:05:26;;;;;;;86.03;44.05;;;8.90;99.90;;;;;;4962165;28;20026;-73
2021/03/25 03:08:11;;;;;;;82.50;43.35;;;9.00;99.90;;;;;;4965804;28;20106;-74
2021/03/25 03:10:43;;;;;;;88.85;44.03;;;9.00;99.90;;;;;;4965660;28;20050;-75
2021/03/25 03:13:13;;;;;;;88.53;42.10;;;9.00;99.90;;;;;;4964001;28;20020;-75
2021/03/25 03:15:47;;;;;;;86.93;45.25;;;9.00;99.90;;;;;;4961362;28;20043;-73
2021/03/25 03:18:18;;;;;;;87.38;42.90;;;9.10;99.90;;;;;;4949181;28;20586;-71
2021/03/25 03:21:00;;;;;;;85.20;44.58;;;9.00;99.90;;;;;;4949111;28;20035;-74
2021/03/25 03:23:29;;;;;;;92.87;46.43;;;9.10;99.90;;;;;;4962570;28;20050;-75
2021/03/25 03:25:58;;;;;;;90.20;45.10;;;9.10;99.90;;;;;;4962192;28;20019;-75
2021/03/25 03:28:33;;;;;;;97.15;46.90;;;9.10;99.90;;;;;;4945069;28;20400;-75
2021/03/25 03:31:05;;;;;;;91.55;47.90;;;9.00;99.90;;;;;;4964536;28;20038;-74
2021/03/25 03:33:39;;;;;;;92.53;45.03;;;9.10;99.90;;;;;;4956725;28;20094;-73
2021/03/25 03:36:17;;;;;;;97.80;46.00;;;9.10;99.90;;;;;;4962124;28;20062;-74
2021/03/25 03:38:54;;;;;;;90.53;43.88;;;9.20;99.90;;;;;;4969211;28;20479;-75
2021/03/25 03:41:28;;;;;;;86.68;48.08;;;9.20;99.90;;;;;;4962108;28;20039;-75
2021/03/25 03:43:55;;;;;;;90.47;44.75;;;9.20;99.90;;;;;;4957735;28;20035;-74
2021/03/25 03:46:26;;;;;;;91.90;45.65;;;9.20;99.90;;;;;;4963944;28;20023;-75
2021/03/25 03:49:12;;;;;;;85.78;44.85;;;9.20;99.90;;;;;;4962663;28;20531;-75
2021/03/25 03:51:50;;;;;;;92.68;46.33;;;9.30;99.90;;;;;;4967748;28;20159;-75
2021/03/25 03:54:16;;;;;;;96.90;48.00;;;9.30;99.90;;;;;;4967042;28;20986;-74
2021/03/25 03:57:16;;;;;;;93.47;45.20;;;9.30;99.90;;;;;;4948826;28;20440;-74
2021/03/25 03:59:47;;;;;;;94.45;45.08;;;9.30;99.90;;;;;;4957012;28;20030;-75
2021/03/25 04:02:27;;;;;;;93.85;46.35;;;9.30;99.90;;;;;;4956838;28;20042;-72
2021/03/25 04:05:09;;;;;;;95.93;47.20;;;9.30;99.90;;;;;;4962611;28;20033;-75
2021/03/25 04:07:39;;;;;;;97.95;46.40;;;9.30;99.90;;;;;;4964244;28;20043;-75
2021/03/25 04:10:11;;;;;;;88.72;45.75;;;9.30;99.90;;;;;;4960893;28;20053;-74
2021/03/25 04:12:40;;;;;;;93.05;44.72;;;9.30;99.90;;;;;;4959225;28;20031;-74
2021/03/25 04:15:27;;;;;;;88.10;44.47;;;9.30;99.90;;;;;;4962608;28;20034;-75
2021/03/25 04:18:06;;;;;;;94.85;46.83;;;9.40;99.90;;;;;;4963086;28;20035;-75
2021/03/25 04:20:35;;;;;;;92.25;45.10;;;9.40;99.90;;;;;;4964872;28;20648;-75
2021/03/25 04:23:05;;;;;;;90.38;45.30;;;9.30;99.90;;;;;;4963505;28;20113;-73
2021/03/25 04:25:43;;;;;;;93.35;44.78;;;9.40;99.90;;;;;;4962633;28;20023;-72
2021/03/25 04:28:12;;;;;;;93.28;45.17;;;9.40;99.90;;;;;;4958790;28;20058;-74
2021/03/25 04:30:44;;;;;;;96.60;46.47;;;9.40;99.90;;;;;;4961345;28;20026;-75
2021/03/25 04:33:13;;;;;;;94.32;46.20;;;9.40;99.90;;;;;;4963756;28;20082;-75
2021/03/25 04:35:42;;;;;;;94.60;46.28;;;9.40;99.90;;;;;;4962087;28;20451;-75
2021/03/25 04:38:11;;;;;;;94.00;47.80;;;9.40;99.90;;;;;;4968585;28;20086;-72
2021/03/25 04:40:39;;;;;;;95.03;43.95;;;9.40;99.90;;;;;;4962246;28;20039;-74
2021/03/25 04:43:05;;;;;;;98.80;48.50;;;9.50;99.90;;;;;;4956422;28;20033;-75
2021/03/25 04:46:08;;;;;;;100.03;48.05;;;9.40;99.90;;;;;;4956833;28;20488;-75
2021/03/25 04:48:41;;;;;;;103.65;49.63;;;9.40;99.90;;;;;;4930667;28;20142;-75
2021/03/25 04:51:14;;;;;;;104.82;51.05;;;9.40;99.90;;;;;;4961049;28;20066;-75
2021/03/25 04:53:42;;;;;;;93.25;46.40;;;9.40;99.90;;;;;;4961981;28;20031;-74
2021/03/25 04:56:17;;;;;;;93.85;47.50;;;9.40;99.90;;;;;;4968829;28;20070;-73
2021/03/25 04:58:52;;;;;;;93.97;46.40;;;9.40;99.90;;;;;;4955088;28;20026;-74
2021/03/25 05:01:21;;;;;;;96.18;46.70;;;9.30;99.90;;;;;;4958642;28;20101;-75
2021/03/25 05:03:48;;;;;;;94.55;50.15;;;9.40;99.90;;;;;;4960240;28;20046;-75
2021/03/25 05:06:20;;;;;;;93.93;46.85;;;9.30;99.90;;;;;;4958870;28;20023;-74
2021/03/25 05:08:48;;;;;;;96.15;46.55;;;9.30;99.90;;;;;;4966383;28;20038;-74
2021/03/25 05:11:17;;;;;;;92.95;44.60;;;9.30;99.90;;;;;;4961295;28;20479;-74
2021/03/25 05:13:45;;;;;;;91.25;44.25;;;9.30;99.90;;;;;;4967644;28;20029;-74
2021/03/25 05:16:38;;;;;;;102.10;48.75;;;9.20;99.90;;;;;;4959783;28;20042;-74
2021/03/25 05:19:13;;;;;;;;;;;9.20;99.90;;;;;;4966957;28;20383;-73
2021/03/25 05:21:46;;;;;;;105.60;47.47;;;9.10;99.90;;;;;;4961326;28;19910;-74
2021/03/25 05:24:16;;;;;;;;;;;9.20;99.90;;;;;;4971575;28;20026;-73
2021/03/25 05:26:58;;;;;;;99.28;45.88;;;9.20;99.90;;;;;;4961608;28;19976;-75
2021/03/25 05:29:26;;;;;;;93.63;44.00;;;9.30;99.90;;;;;;4965337;28;20054;-73
2021/03/25 05:31:53;;;;;;;88.70;44.40;;;9.20;99.90;;;;;;4965681;28;20030;-71
2021/03/25 05:34:20;;;;;;;95.70;47.85;;;9.20;99.90;;;;;;4943696;28;20387;-74
2021/03/25 05:36:47;;;;;;;98.80;46.60;;;9.20;99.90;;;;;;4964074;28;20395;-74
2021/03/25 05:39:12;;;;;;;95.55;46.70;;;9.20;99.90;;;;;;4969036;28;20070;-71
2021/03/25 05:41:53;;;;;;;96.47;47.97;;;9.10;99.90;;;;;;4951794;28;20054;-73
2021/03/25 05:44:37;;;;;;;109.05;49.58;;;9.00;99.90;;;;;;4960684;28;20031;-74
2021/03/25 05:47:27;;;;;;;99.85;48.83;;;9.10;99.90;;;;;;4958479;28;20380;-74
2021/03/25 05:50:16;;;;;;;95.80;47.45;;;9.10;99.90;;;;;;4961706;28;20031;-75
2021/03/25 05:52:57;;;;;;;89.25;45.45;;;9.00;99.90;;;;;;4963883;28;20030;-74
2021/03/25 05:55:44;;;;;;;95.95;48.65;;;9.00;99.90;;;;;;4966488;28;20400;-75
2021/03/25 05:58:43;;;;;;;110.40;51.92;;;9.00;99.90;;;;;;4970354;28;20089;-74
2021/03/25 06:01:26;;;;;;;100.78;47.80;;;9.10;99.90;;;;;;4959748;28;20046;-73
2021/03/25 06:04:14;;;;;;;96.97;49.78;;;9.10;99.90;;;;;;4968683;28;20035;-73
2021/03/25 06:07:15;;;;;;;96.35;46.97;;;9.00;99.90;;;;;;4963425;28;20106;-72
2021/03/25 06:10:05;;;;;;;99.75;48.45;;;9.00;99.90;;;;;;4967866;28;20468;-73
2021/03/25 06:12:46;;;;;;;103.07;49.58;;;9.00;99.90;;;;;;4967422;28;20034;-74
2021/03/25 06:15:37;;;;;;;98.72;48.58;;;9.00;99.90;;;;;;4961138;28;20046;-73
2021/03/25 06:18:14;;;;;;;105.25;49.45;;;9.00;99.90;;;;;;4951151;28;20097;-73
2021/03/25 06:20:55;;;;;;;103.28;51.33;;;9.10;99.90;;;;;;4965516;28;20035;-73
2021/03/25 06:23:27;;;;;;;115.85;52.92;;;9.10;99.90;;;;;;4963887;28;20037;-73
2021/03/25 06:25:56;;;;;;;;;;;9.20;99.90;;;;;;4968327;28;20372;-73
2021/03/25 06:28:33;;;;;;;113.35;51.95;;;9.20;99.90;;;;;;4966409;28;20359;-74
2021/03/25 06:31:23;;;;;;;116.15;57.40;;;9.20;99.90;;;;;;4963227;28;20053;-72
2021/03/25 06:34:01;;;;;;;112.75;57.80;;;9.20;99.90;;;;;;4967300;28;20045;-74
2021/03/25 06:36:44;;;;;;;108.63;54.22;;;9.20;99.90;;;;;;4965433;28;20035;-73
2021/03/25 06:39:26;;;;;;;105.88;55.70;;;9.30;99.90;;;;;;4950986;28;20077;-74
2021/03/25 06:42:18;;;;;;;114.00;54.57;;;9.30;99.90;;;;;;4951865;28;20147;-74
2021/03/25 06:44:59;;;;;;;103.70;53.88;;;9.30;99.90;;;;;;4962096;28;20038;-73
2021/03/25 06:47:38;;;;;;;107.55;54.20;;;9.30;99.90;;;;;;4969339;28;20043;-74
2021/03/25 06:50:05;;;;;;;106.85;55.00;;;9.30;99.90;;;;;;4962919;28;20082;-74
2021/03/25 06:52:35;;;;;;;112.80;55.30;;;9.40;99.90;;;;;;4962336;28;20023;-74
2021/03/25 06:55:15;;;;;;;113.47;52.85;;;9.40;99.90;;;;;;4962616;28;20041;-74
2021/03/25 06:57:46;;;;;;;104.65;53.10;;;9.40;99.90;;;;;;4967514;28;20476;-73
2021/03/25 07:00:16;;;;;;;106.78;52.78;;;9.40;99.90;;;;;;4966655;28;20029;-73
2021/03/25 07:02:45;;;;;;;119.47;58.13;;;9.40;99.90;;;;;;4965024;28;20066;-74
2021/03/25 07:05:21;;;;;;;116.30;55.28;;;9.50;99.90;;;;;;4966315;28;20051;-73
2021/03/25 07:07:54;;;;;;;116.05;58.13;;;9.50;99.90;;;;;;4969242;28;20065;-73
2021/03/25 07:10:20;;;;;;;102.13;53.17;;;9.60;99.90;;;;;;4961902;28;20041;-73
2021/03/25 07:12:48;;;;;;;108.03;52.17;;;9.60;99.90;;;;;;4966329;28;20102;-74
2021/03/25 07:15:25;;;;;;;106.57;52.17;;;9.70;99.90;;;;;;4953574;28;20039;-73
2021/03/25 07:17:52;;;;;;;98.93;50.22;;;9.60;99.90;;;;;;4968328;28;20062;-73
2021/03/25 07:20:31;;;;;;;106.50;53.50;;;9.60;99.90;;;;;;4968589;28;20471;-73
2021/03/25 07:23:03;;;;;;;106.90;53.85;;;9.60;99.90;;;;;;4961590;28;20023;-74
2021/03/25 07:25:30;;;;;;;97.85;49.22;;;9.60;99.90;;;;;;4949681;28;20034;-73
2021/03/25 07:27:58;;;;;;;96.82;50.92;;;9.70;99.90;;;;;;4966822;28;20027;-72
2021/03/25 07:30:25;;;;;;;105.07;51.47;;;9.80;99.90;;;;;;4967432;28;20031;-73
2021/03/25 07:32:57;;;;;;;96.53;49.85;;;9.70;99.90;;;;;;4951836;28;20051;-73
2021/03/25 07:35:29;;;;;;;93.95;45.67;;;9.80;99.90;;;;;;4964655;28;20468;-72
2021/03/25 07:37:55;;;;;;;96.93;47.13;;;9.90;99.90;;;;;;4964628;28;20031;-73
2021/03/25 07:40:26;;;;;;;94.68;45.72;;;9.80;99.90;;;;;;4968249;28;20039;-73
2021/03/25 07:42:52;;;;;;;97.17;48.07;;;9.60;99.90;;;;;;4956831;28;20082;-73
2021/03/25 07:45:32;;;;;;;94.68;44.50;;;9.70;99.90;;;;;;4966302;28;20039;-73
2021/03/25 07:48:25;;;;;;;90.60;45.72;;;9.80;99.90;;;;;;4961909;28;20015;-73
2021/03/25 07:51:12;;;;;;;96.85;48.70;;;9.90;99.90;;;;;;4956246;28;20126;-73
2021/03/25 07:53:39;;;;;;;90.63;44.63;;;10.00;99.90;;;;;;4965458;28;20035;-73
2021/03/25 07:56:11;;;;;;;81.43;44.72;;;10.10;99.90;;;;;;4963469;28;20122;-73
2021/03/25 07:58:42;;;;;;;84.05;42.67;;;10.20;99.90;;;;;;4961884;28;20487;-73
2021/03/25 08:01:33;;;;;;;88.00;44.67;;;10.30;99.90;;;;;;4957832;28;20526;-73
2021/03/25 08:03:59;;;;;;;87.78;43.22;;;10.50;99.90;;;;;;4951981;28;20042;-72
2021/03/25 08:06:37;;;;;;;89.20;45.10;;;10.50;99.90;;;;;;4965013;28;20102;-73
2021/03/25 08:09:12;;;;;;;87.13;43.90;;;10.60;99.90;;;;;;4963540;28;20062;-73
2021/03/25 08:11:58;;;;;;;88.85;44.42;;;10.60;99.90;;;;;;4965736;28;20113;-74
2021/03/25 08:14:25;;;;;;;79.97;42.15;;;10.80;99.90;;;;;;4955864;28;20050;-72
2021/03/25 08:16:56;;;;;;;82.35;42.72;;;10.90;99.90;;;;;;4957689;28;20035;-74
2021/03/25 08:19:47;;;;;;;87.55;42.72;;;11.10;99.90;;;;;;4944794;28;20039;-73
2021/03/25 08:22:28;;;;;;;76.10;40.15;;;11.20;99.90;;;;;;4956481;28;20137;-74
2021/03/25 08:24:54;;;;;;;71.95;36.95;;;11.30;99.90;;;;;;4958007;28;20045;-74
2021/03/25 08:27:33;;;;;;;75.40;39.40;;;11.30;99.90;;;;;;4960904;28;20097;-73
2021/03/25 08:30:22;;;;;;;67.85;36.72;;;11.40;99.90;;;;;;4968226;28;20034;-73
2021/03/25 08:33:19;;;;;;;66.07;33.17;;;11.60;99.90;;;;;;4961559;28;20027;-73
2021/03/25 08:35:51;;;;;;;67.88;38.38;;;11.80;99.90;;;;;;4966336;28;20503;-74
2021/03/25 08:38:37;;;;;;;70.57;35.95;;;11.90;99.90;;;;;;4959879;28;20026;-74
2021/03/25 08:41:11;;;;;;;71.90;37.53;;;11.90;99.90;;;;;;4953465;28;20042;-72
2021/03/25 08:44:09;;;;;;;64.20;35.70;;;12.10;99.90;;;;;;4948597;28;20035;-76
2021/03/25 08:46:44;;;;;;;69.38;36.45;;;12.20;99.90;;;;;;4946640;28;20130;-74
2021/03/25 08:49:20;;;;;;;55.40;29.15;;;12.20;99.90;;;;;;4960561;28;20379;-73
2021/03/25 08:51:46;;;;;;;45.50;25.13;;;12.30;99.90;;;;;;4964387;28;20035;-74
2021/03/25 08:54:24;;;;;;;50.45;27.33;;;12.40;99.90;;;;;;4960827;28;20045;-74
2021/03/25 08:56:55;;;;;;;47.55;26.88;;;12.30;99.90;;;;;;4959911;28;20035;-74
2021/03/25 08:59:31;;;;;;;56.30;28.80;;;12.50;99.90;;;;;;4960571;28;20019;-74
2021/03/25 09:02:34;;;;;;;48.30;27.27;;;12.60;99.90;;;;;;4956672;28;20031;-74
2021/03/25 09:05:06;;;;;;;53.35;28.40;;;12.90;99.90;;;;;;4943857;28;20102;-74
2021/03/25 09:07:33;;;;;;;44.70;27.45;;;12.90;99.90;;;;;;4957137;28;20031;-73
2021/03/25 09:10:09;;;;;;;43.00;24.95;;;13.00;99.90;;;;;;4958485;28;20078;-74
2021/03/25 09:12:35;;;;;;;50.75;26.77;;;13.00;99.90;;;;;;4958466;28;20109;-73
2021/03/25 09:15:04;;;;;;;48.10;26.35;;;13.00;99.90;;;;;;4959373;28;20429;-74
2021/03/25 09:17:39;;;;;;;45.38;25.25;;;13.00;99.90;;;;;;4961485;28;20420;-74
2021/03/25 09:20:19;;;;;;;41.35;21.13;;;13.00;99.90;;;;;;4962543;28;20593;-74
2021/03/25 09:22:56;;;;;;;40.33;22.90;;;13.10;99.90;;;;;;4961672;28;20035;-74
2021/03/25 09:25:25;;;;;;;38.80;21.20;;;13.00;99.90;;;;;;4961451;28;20030;-74
2021/03/25 09:28:17;;;;;;;28.00;16.25;;;13.10;99.90;;;;;;4961152;28;20046;-74
2021/03/25 09:31:07;;;;;;;35.40;18.20;;;13.00;99.90;;;;;;4960762;28;20023;-74
2021/03/25 09:33:44;;;;;;;34.45;19.60;;;13.10;99.90;;;;;;4961692;28;20031;-74
2021/03/25 09:36:16;;;;;;;35.15;21.73;;;13.00;99.90;;;;;;4938025;28;20034;-74
2021/03/25 09:38:42;;;;;;;33.55;21.67;;;13.10;99.90;;;;;;4960550;28;20035;-74
2021/03/25 09:41:19;;;;;;;33.75;22.08;;;13.20;99.90;;;;;;4957854;28;20082;-73
2021/03/25 09:43:45;;;;;;;38.33;22.77;;;13.50;99.90;;;;;;4969296;28;20561;-73
2021/03/25 09:46:39;;;;;;;40.08;24.20;;;13.70;99.90;;;;;;4961080;28;20023;-73
2021/03/25 09:52:23;;;;;;;33.10;20.35;;;13.60;99.90;;;;;;4962006;28;20038;-73
2021/03/25 09:54:54;;;;;;;28.60;18.17;;;13.70;99.90;;;;;;4955232;28;20027;-73
2021/03/25 09:57:28;;;;;;;31.48;17.85;;;13.80;99.90;;;;;;4965932;28;20031;-74
2021/03/25 10:00:09;;;;;;;32.08;19.48;;;14.10;99.90;;;;;;4967425;28;20035;-74
2021/03/25 10:02:41;;;;;;;39.30;21.13;;;14.10;99.90;;;;;;4958239;28;20338;-73
2021/03/25 10:08:00;;;;;;;32.85;19.40;;;14.20;99.90;;;;;;4960139;28;20396;-74
2021/03/25 10:10:49;;;;;;;33.45;20.23;;;13.90;99.90;;;;;;4950043;28;20499;-74
2021/03/25 10:13:37;;;;;;;36.78;20.95;;;13.80;99.90;;;;;;4965715;28;20031;-73
2021/03/25 10:16:04;;;;;;;43.08;21.77;;;13.60;99.90;;;;;;4956714;28;20035;-74
2021/03/25 10:18:33;;;;;;;42.97;23.25;;;13.60;99.90;;;;;;4968086;28;20023;-73
2021/03/25 10:21:14;;;;;;;35.83;24.80;;;13.60;99.90;;;;;;4968154;28;20090;-73
2021/03/25 10:23:49;;;;;;;41.33;25.40;;;13.60;99.90;;;;;;4952722;28;20475;-73
2021/03/25 10:26:35;;;;;;;43.45;27.23;;;13.60;99.90;;;;;;4959290;28;20480;-73
2021/03/25 10:29:09;;;;;;;45.10;25.08;;;13.50;99.90;;;;;;4964011;28;20054;-73
2021/03/25 10:31:40;;;;;;;36.05;20.77;;;13.50;99.90;;;;;;4960973;28;20027;-72
2021/03/25 10:34:19;;;;;;;26.60;16.85;;;13.40;99.90;;;;;;4959603;28;20034;-73
2021/03/25 10:37:02;;;;;;;29.90;17.02;;;13.40;99.90;;;;;;4964905;28;20039;-73
2021/03/25 10:39:50;;;;;;;19.42;11.65;;;13.50;99.90;;;;;;4965098;28;20097;-74
2021/03/25 10:42:19;;;;;;;16.08;11.88;;;13.50;99.90;;;;;;4963426;28;20447;-73
2021/03/25 10:44:45;;;;;;;17.05;12.32;;;13.50;99.90;;;;;;4965928;28;20085;-73
2021/03/25 10:47:19;;;;;;;18.95;12.85;;;13.70;99.90;;;;;;4970097;28;20027;-73
2021/03/25 10:49:54;;;;;;;14.02;10.63;;;13.70;99.90;;;;;;4964857;28;20054;-74
2021/03/25 10:52:28;;;;;;;16.65;11.68;;;13.70;99.90;;;;;;4966534;28;20065;-73
2021/03/25 10:54:58;;;;;;;22.00;13.05;;;13.90;99.90;;;;;;4959685;28;20039;-74
2021/03/25 10:57:26;;;;;;;21.98;12.80;;;14.00;99.90;;;;;;4964318;28;20027;-74
2021/03/25 11:00:01;;;;;;;21.30;14.07;;;14.00;99.90;;;;;;4963058;28;20460;-73
2021/03/25 11:02:30;;;;;;;20.45;14.63;;;14.10;99.90;;;;;;4962039;28;20098;-73
2021/03/25 11:05:15;;;;;;;27.70;17.35;;;14.20;99.90;;;;;;4949910;29;20486;-74
2021/03/25 11:07:43;;;;;;;26.15;14.90;;;14.40;99.90;;;;;;4967848;28;20031;-73
2021/03/25 11:10:28;;;;;;;16.17;10.82;;;14.50;99.90;;;;;;4970884;28;20479;-74
2021/03/25 11:13:01;;;;;;;15.65;10.20;;;14.70;99.90;;;;;;4961215;28;20448;-73
2021/03/25 11:15:32;;;;;;;14.00;8.07;;;14.90;99.90;;;;;;4966140;28;20325;-73
2021/03/25 11:18:02;;;;;;;10.55;7.30;;;14.70;99.90;;;;;;4969767;28;20043;-73
2021/03/25 11:20:28;;;;;;;13.88;9.05;;;14.60;99.90;;;;;;4970456;28;20106;-73
2021/03/25 11:22:57;;;;;;;16.45;11.18;;;14.50;99.90;;;;;;4967319;28;20037;-74
2021/03/25 11:25:30;;;;;;;19.52;14.00;;;14.40;99.90;;;;;;4956997;28;20027;-73
2021/03/25 11:28:06;;;;;;;17.02;13.68;;;14.30;99.90;;;;;;4961548;28;20443;-74
2021/03/25 11:30:40;;;;;;;13.27;11.02;;;14.20;99.90;;;;;;4963216;28;20027;-73
2021/03/25 11:33:29;;;;;;;14.30;10.65;;;14.10;99.90;;;;;;4958159;28;20023;-74
2021/03/25 11:35:57;;;;;;;15.40;10.07;;;14.20;99.90;;;;;;4960300;28;20550;-72
2021/03/25 11:38:25;;;;;;;16.20;10.20;;;14.30;99.90;;;;;;4958148;28;20373;-72
2021/03/25 11:40:55;;;;;;;16.98;9.50;;;14.30;99.90;;;;;;4960069;28;20400;-74
2021/03/25 11:43:24;;;;;;;16.70;9.75;;;14.30;99.90;;;;;;4960152;28;20019;-74
2021/03/25 11:45:54;;;;;;;18.30;11.65;;;14.20;99.90;;;;;;4948479;28;20367;-74
2021/03/25 11:48:27;;;;;;;19.50;11.45;;;14.20;99.90;;;;;;4955836;28;20031;-73
2021/03/25 11:50:55;;;;;;;18.98;10.90;;;14.20;99.90;;;;;;4964382;28;20059;-74
2021/03/25 11:53:38;;;;;;;20.42;11.70;;;14.10;99.90;;;;;;4959532;28;20106;-73
2021/03/25 11:56:06;;;;;;;16.95;11.60;;;14.30;99.90;;;;;;4965302;28;20590;-73
2021/03/25 11:58:31;;;;;;;25.88;12.57;;;14.50;99.90;;;;;;4955752;28;20361;-73
2021/03/25 12:01:05;;;;;;;16.23;11.88;;;14.60;99.90;;;;;;4956182;28;20059;-73
2021/03/25 12:03:46;;;;;;;15.45;11.50;;;14.60;99.90;;;;;;4961736;28;20038;-73
2021/03/25 12:06:30;;;;;;;18.52;10.77;;;14.60;99.90;;;;;;4962648;28;20031;-73
2021/03/25 12:09:19;;;;;;;19.35;12.00;;;14.80;99.90;;;;;;4965448;28;20022;-74
2021/03/25 12:11:48;;;;;;;18.42;11.20;;;14.90;99.90;;;;;;4966651;28;20084;-74
2021/03/25 12:14:15;;;;;;;15.48;9.73;;;14.90;99.90;;;;;;4963438;28;20026;-73
2021/03/25 12:16:42;;;;;;;17.10;9.20;;;14.90;99.90;;;;;;4964437;28;20038;-73
2021/03/25 12:19:09;;;;;;;13.15;9.77;;;14.50;99.90;;;;;;4960917;28;20091;-74
2021/03/25 12:21:37;;;;;;;16.33;10.27;;;14.50;99.90;;;;;;4945200;28;20094;-74
2021/03/25 12:24:04;;;;;;;17.90;13.40;;;14.40;99.90;;;;;;4954105;28;20114;-73
2021/03/25 12:26:31;;;;;;;17.98;11.73;;;14.40;99.90;;;;;;4966384;28;20034;-73
2021/03/25 12:29:02;;;;;;;15.40;11.30;;;14.50;99.90;;;;;;4960508;28;20039;-73
2021/03/25 12:31:30;;;;;;;13.32;10.23;;;14.50;99.90;;;;;;4958870;28;20035;-73
2021/03/25 12:33:56;;;;;;;15.27;9.60;;;14.40;99.90;;;;;;4968595;28;20085;-73
2021/03/25 12:36:21;;;;;;;18.10;9.68;;;14.30;99.90;;;;;;4964572;28;20046;-74
2021/03/25 12:38:47;;;;;;;12.45;9.80;;;14.10;99.90;;;;;;4958274;28;20039;-73
2021/03/25 12:41:25;;;;;;;14.75;10.05;;;14.10;99.90;;;;;;4955451;28;20033;-73
2021/03/25 12:43:51;;;;;;;12.15;9.30;;;14.00;99.90;;;;;;4967769;28;20106;-74
2021/03/25 12:46:17;;;;;;;18.52;12.02;;;13.90;99.90;;;;;;4957758;28;20169;-74
2021/03/25 12:48:43;;;;;;;18.40;11.75;;;13.90;99.90;;;;;;4940800;28;20125;-73
2021/03/25 12:51:14;;;;;;;18.15;12.23;;;13.80;99.90;;;;;;4964422;28;20033;-73
2021/03/25 12:53:44;;;;;;;14.43;10.52;;;13.80;99.90;;;;;;4947878;28;20023;-74
2021/03/25 12:56:21;;;;;;;14.93;10.05;;;13.80;99.90;;;;;;4963331;28;20145;-73
2021/03/25 12:58:47;;;;;;;14.85;11.73;;;14.00;99.90;;;;;;4964468;28;20471;-73
2021/03/25 13:01:15;;;;;;;16.48;10.52;;;14.10;99.90;;;;;;4960792;28;20109;-73
2021/03/25 13:03:42;;;;;;;15.43;10.30;;;14.00;99.90;;;;;;4965292;28;20027;-74
2021/03/25 13:06:09;;;;;;;14.90;9.90;;;13.90;99.90;;;;;;4965907;28;20033;-73
2021/03/25 13:08:35;;;;;;;15.75;10.50;;;14.00;99.90;;;;;;4960341;28;20036;-72
2021/03/25 13:11:01;;;;;;;14.30;9.90;;;14.10;99.90;;;;;;4956596;28;20533;-73
2021/03/25 13:13:27;;;;;;;14.88;9.80;;;14.20;99.90;;;;;;4958191;28;20019;-73
2021/03/25 13:15:52;;;;;;;12.23;8.15;;;14.30;99.90;;;;;;4966532;28;20162;-72